sensor_id;sensor_type;location;lat;lon;timestamp;pressure;altitude;pressure_sealevel;temperature;humidity
6218;BME280;3142;48.206;11.550;2024-01-11T00:00:10;96578.81;;;-2.89;80.62
6218;BME280;3142;48.206;11.550;2024-01-11T00:02:37;96577.44;;;-2.80;80.50
6218;BME280;3142;48.206;11.550;2024-01-11T00:05:04;96575.44;;;-2.89;79.59
6218;BME280;3142;48.206;11.550;2024-01-11T00:07:31;96576.34;;;-2.90;81.00
6218;BME280;3142;48.206;11.550;2024-01-11T00:09:58;96588.88;;;-2.86;80.85
6218;BME280;3142;48.206;11.550;2024-01-11T00:12:24;96583.38;;;-2.80;80.35
6218;BME280;3142;48.206;11.550;2024-01-11T00:14:51;96582.19;;;-2.88;80.11
6218;BME280;3142;48.206;11.550;2024-01-11T00:17:18;96579.47;;;-2.85;80.19
6218;BME280;3142;48.206;11.550;2024-01-11T00:19:45;96582.03;;;-2.85;80.48
6218;BME280;3142;48.206;11.550;2024-01-11T00:22:11;96578.81;;;-2.89;80.62
6218;BME280;3142;48.206;11.550;2024-01-11T00:24:38;96576.66;;;-2.68;80.62
6218;BME280;3142;48.206;11.550;2024-01-11T00:27:04;96576.75;;;-2.70;79.29
6218;BME280;3142;48.206;11.550;2024-01-11T00:29:31;96580.38;;;-2.86;79.82
6218;BME280;3142;48.206;11.550;2024-01-11T00:31:57;96586.50;;;-2.89;79.77
6218;BME280;3142;48.206;11.550;2024-01-11T00:34:25;96581.31;;;-3.02;80.40
6218;BME280;3142;48.206;11.550;2024-01-11T00:36:52;96579.94;;;-2.93;80.74
6218;BME280;3142;48.206;11.550;2024-01-11T00:39:18;96580.84;;;-2.94;80.37
6218;BME280;3142;48.206;11.550;2024-01-11T00:41:45;96585.34;;;-2.97;80.07
6218;BME280;3142;48.206;11.550;2024-01-11T00:44:11;96582.31;;;-3.04;80.00
6218;BME280;3142;48.206;11.550;2024-01-11T00:46:38;96583.81;;;-3.00;80.32
6218;BME280;3142;48.206;11.550;2024-01-11T00:49:04;96582.00;;;-3.12;79.92
6218;BME280;3142;48.206;11.550;2024-01-11T00:51:32;96585.06;;;-3.07;79.54
6218;BME280;3142;48.206;11.550;2024-01-11T00:53:58;96596.13;;;-3.07;79.82
6218;BME280;3142;48.206;11.550;2024-01-11T00:56:25;96587.34;;;-3.03;79.91
6218;BME280;3142;48.206;11.550;2024-01-11T00:58:52;96596.44;;;-3.11;80.45
6218;BME280;3142;48.206;11.550;2024-01-11T01:01:18;96593.97;;;-3.13;79.51
6218;BME280;3142;48.206;11.550;2024-01-11T01:03:45;96590.84;;;-3.18;79.81
6218;BME280;3142;48.206;11.550;2024-01-11T01:06:11;96594.88;;;-3.14;79.50
6218;BME280;3142;48.206;11.550;2024-01-11T01:08:39;96593.28;;;-3.02;79.46
6218;BME280;3142;48.206;11.550;2024-01-11T01:11:06;96599.81;;;-3.11;80.04
6218;BME280;3142;48.206;11.550;2024-01-11T01:13:32;96586.53;;;-3.03;79.59
6218;BME280;3142;48.206;11.550;2024-01-11T01:15:59;96590.91;;;-3.05;79.52
6218;BME280;3142;48.206;11.550;2024-01-11T01:18:25;96590.25;;;-2.94;79.30
6218;BME280;3142;48.206;11.550;2024-01-11T01:20:52;96592.47;;;-3.03;79.05
6218;BME280;3142;48.206;11.550;2024-01-11T01:23:19;96595.78;;;-3.01;79.25
6218;BME280;3142;48.206;11.550;2024-01-11T01:25:48;96601.31;;;-2.94;79.49
6218;BME280;3142;48.206;11.550;2024-01-11T01:28:14;96603.16;;;-2.96;79.12
6218;BME280;3142;48.206;11.550;2024-01-11T01:30:41;96595.31;;;-3.07;79.30
6218;BME280;3142;48.206;11.550;2024-01-11T01:33:07;96596.50;;;-2.99;79.89
6218;BME280;3142;48.206;11.550;2024-01-11T01:35:34;96600.06;;;-3.01;78.25
6218;BME280;3142;48.206;11.550;2024-01-11T01:38:01;96605.66;;;-3.09;79.08
6218;BME280;3142;48.206;11.550;2024-01-11T01:40:29;96609.94;;;-3.09;78.65
6218;BME280;3142;48.206;11.550;2024-01-11T01:42:59;96608.94;;;-3.07;78.45
6218;BME280;3142;48.206;11.550;2024-01-11T01:45:26;96604.81;;;-3.09;78.84
6218;BME280;3142;48.206;11.550;2024-01-11T01:47:53;96613.50;;;-2.97;77.63
6218;BME280;3142;48.206;11.550;2024-01-11T01:50:20;96622.25;;;-3.02;77.84
6218;BME280;3142;48.206;11.550;2024-01-11T01:52:47;96619.72;;;-3.16;79.02
6218;BME280;3142;48.206;11.550;2024-01-11T01:55:17;96626.13;;;-3.23;78.59
6218;BME280;3142;48.206;11.550;2024-01-11T01:57:45;96631.06;;;-3.20;78.02
6218;BME280;3142;48.206;11.550;2024-01-11T02:00:14;96625.94;;;-3.20;77.61
6218;BME280;3142;48.206;11.550;2024-01-11T02:02:43;96628.31;;;-3.17;78.85
6218;BME280;3142;48.206;11.550;2024-01-11T02:05:10;96622.66;;;-3.22;78.46
6218;BME280;3142;48.206;11.550;2024-01-11T02:07:37;96627.69;;;-3.35;78.62
6218;BME280;3142;48.206;11.550;2024-01-11T02:10:05;96628.31;;;-3.31;78.27
6218;BME280;3142;48.206;11.550;2024-01-11T02:12:35;96620.91;;;-3.36;78.27
6218;BME280;3142;48.206;11.550;2024-01-11T02:15:02;96627.78;;;-3.36;78.49
6218;BME280;3142;48.206;11.550;2024-01-11T02:17:30;96624.75;;;-3.43;78.90
6218;BME280;3142;48.206;11.550;2024-01-11T02:19:57;96621.47;;;-3.45;78.01
6218;BME280;3142;48.206;11.550;2024-01-11T02:22:27;96624.00;;;-3.45;78.92
6218;BME280;3142;48.206;11.550;2024-01-11T02:24:56;96622.75;;;-3.52;78.99
6218;BME280;3142;48.206;11.550;2024-01-11T02:27:23;96624.94;;;-3.46;78.95
6218;BME280;3142;48.206;11.550;2024-01-11T02:29:49;96627.03;;;-3.38;77.99
6218;BME280;3142;48.206;11.550;2024-01-11T02:32:16;96622.19;;;-3.43;79.24
6218;BME280;3142;48.206;11.550;2024-01-11T02:34:43;96618.19;;;-3.33;78.29
6218;BME280;3142;48.206;11.550;2024-01-11T02:37:10;96622.19;;;-3.43;78.51
6218;BME280;3142;48.206;11.550;2024-01-11T02:39:37;96620.19;;;-3.52;78.74
6218;BME280;3142;48.206;11.550;2024-01-11T02:42:05;96615.53;;;-3.60;78.63
6218;BME280;3142;48.206;11.550;2024-01-11T02:44:32;96619.16;;;-3.78;78.84
6218;BME280;3142;48.206;11.550;2024-01-11T02:46:58;96613.75;;;-3.88;78.76
6218;BME280;3142;48.206;11.550;2024-01-11T02:49:25;96610.16;;;-3.99;78.96
6218;BME280;3142;48.206;11.550;2024-01-11T02:51:51;96606.28;;;-3.91;79.73
6218;BME280;3142;48.206;11.550;2024-01-11T02:54:17;96612.09;;;-3.89;79.36
6218;BME280;3142;48.206;11.550;2024-01-11T02:56:44;96614.63;;;-4.03;79.70
6218;BME280;3142;48.206;11.550;2024-01-11T02:59:12;96616.88;;;-4.12;80.18
6218;BME280;3142;48.206;11.550;2024-01-11T03:01:38;96614.97;;;-4.23;80.78
6218;BME280;3142;48.206;11.550;2024-01-11T03:04:05;96617.47;;;-4.07;81.22
6218;BME280;3142;48.206;11.550;2024-01-11T03:06:31;96607.53;;;-3.98;80.38
6218;BME280;3142;48.206;11.550;2024-01-11T03:08:58;96602.06;;;-3.92;80.02
6218;BME280;3142;48.206;11.550;2024-01-11T03:11:24;96603.63;;;-3.89;80.05
6218;BME280;3142;48.206;11.550;2024-01-11T03:13:51;96595.53;;;-3.81;80.34
6218;BME280;3142;48.206;11.550;2024-01-11T03:16:19;96591.97;;;-3.79;80.07
6218;BME280;3142;48.206;11.550;2024-01-11T03:18:45;96597.72;;;-3.75;80.39
6218;BME280;3142;48.206;11.550;2024-01-11T03:21:12;96593.78;;;-3.81;80.18
6218;BME280;3142;48.206;11.550;2024-01-11T03:23:38;96588.88;;;-3.70;80.45
6218;BME280;3142;48.206;11.550;2024-01-11T03:26:12;96581.38;;;-3.59;80.20
6218;BME280;3142;48.206;11.550;2024-01-11T03:28:38;96582.09;;;-3.57;79.56
6218;BME280;3142;48.206;11.550;2024-01-11T03:31:05;96575.81;;;-3.51;79.56
6218;BME280;3142;48.206;11.550;2024-01-11T03:33:33;96576.44;;;-3.47;79.56
6218;BME280;3142;48.206;11.550;2024-01-11T03:36:05;96572.63;;;-3.54;79.02
6218;BME280;3142;48.206;11.550;2024-01-11T03:38:32;96578.09;;;-3.61;79.63
6218;BME280;3142;48.206;11.550;2024-01-11T03:40:58;96569.69;;;-3.48;80.46
6218;BME280;3142;48.206;11.550;2024-01-11T03:43:25;96575.25;;;-3.28;79.18
6218;BME280;3142;48.206;11.550;2024-01-11T03:45:51;96565.03;;;-3.28;79.25
6218;BME280;3142;48.206;11.550;2024-01-11T03:48:18;96563.91;;;-3.23;78.87
6218;BME280;3142;48.206;11.550;2024-01-11T03:50:45;96569.56;;;-3.18;78.51
6218;BME280;3142;48.206;11.550;2024-01-11T03:53:12;96561.97;;;-3.20;79.21
6218;BME280;3142;48.206;11.550;2024-01-11T03:55:38;96561.97;;;-3.20;78.76
6218;BME280;3142;48.206;11.550;2024-01-11T03:58:05;96552.56;;;-3.19;78.29
6218;BME280;3142;48.206;11.550;2024-01-11T04:00:31;96550.16;;;-3.08;78.76
6218;BME280;3142;48.206;11.550;2024-01-11T04:02:58;96554.88;;;-3.15;78.55
6218;BME280;3142;48.206;11.550;2024-01-11T04:05:25;96554.78;;;-3.28;77.60
6218;BME280;3142;48.206;11.550;2024-01-11T04:07:52;96552.22;;;-3.28;78.39
6218;BME280;3142;48.206;11.550;2024-01-11T04:10:19;96556.69;;;-3.31;78.49
6218;BME280;3142;48.206;11.550;2024-01-11T04:12:45;96562.81;;;-3.34;78.22
6218;BME280;3142;48.206;11.550;2024-01-11T04:15:12;96569.13;;;-3.39;78.30
6218;BME280;3142;48.206;11.550;2024-01-11T04:17:39;96565.75;;;-3.40;77.63
6218;BME280;3142;48.206;11.550;2024-01-11T04:20:07;96566.28;;;-3.35;78.66
6218;BME280;3142;48.206;11.550;2024-01-11T04:22:33;96569.66;;;-3.34;78.22
6218;BME280;3142;48.206;11.550;2024-01-11T04:25:02;96571.31;;;-3.33;77.68
6218;BME280;3142;48.206;11.550;2024-01-11T04:27:28;96566.81;;;-3.30;78.42
6218;BME280;3142;48.206;11.550;2024-01-11T04:29:55;96576.16;;;-3.43;78.23
6218;BME280;3142;48.206;11.550;2024-01-11T04:32:21;96577.81;;;-3.28;78.78
6218;BME280;3142;48.206;11.550;2024-01-11T04:34:47;96582.47;;;-3.34;77.70
6218;BME280;3142;48.206;11.550;2024-01-11T04:37:14;96576.44;;;-3.33;77.75
6218;BME280;3142;48.206;11.550;2024-01-11T04:39:40;96575.31;;;-3.29;78.35
6218;BME280;3142;48.206;11.550;2024-01-11T04:42:08;96578.72;;;-3.29;78.13
6218;BME280;3142;48.206;11.550;2024-01-11T04:44:35;96583.56;;;-3.38;77.84
6218;BME280;3142;48.206;11.550;2024-01-11T04:47:01;96591.34;;;-3.40;78.21
6218;BME280;3142;48.206;11.550;2024-01-11T04:49:28;96591.59;;;-3.44;78.42
6218;BME280;3142;48.206;11.550;2024-01-11T04:51:54;96589.22;;;-3.47;78.01
6218;BME280;3142;48.206;11.550;2024-01-11T04:54:21;96584.00;;;-3.46;78.35
6218;BME280;3142;48.206;11.550;2024-01-11T04:56:47;96582.03;;;-3.41;77.22
6218;BME280;3142;48.206;11.550;2024-01-11T04:59:16;96587.22;;;-3.42;77.71
6218;BME280;3142;48.206;11.550;2024-01-11T05:01:42;96582.03;;;-3.41;77.38
6218;BME280;3142;48.206;11.550;2024-01-11T05:04:09;96584.09;;;-3.47;76.78
6218;BME280;3142;48.206;11.550;2024-01-11T05:06:35;96586.66;;;-3.47;76.75
6218;BME280;3142;48.206;11.550;2024-01-11T05:09:02;96594.06;;;-3.57;77.49
6218;BME280;3142;48.206;11.550;2024-01-11T05:11:30;96589.94;;;-3.60;76.77
6218;BME280;3142;48.206;11.550;2024-01-11T05:13:56;96574.34;;;-3.69;77.83
6218;BME280;3142;48.206;11.550;2024-01-11T05:16:25;96573.78;;;-3.60;77.95
6218;BME280;3142;48.206;11.550;2024-01-11T05:18:53;96581.28;;;-3.57;77.17
6218;BME280;3142;48.206;11.550;2024-01-11T05:21:20;96582.84;;;-3.69;77.17
6218;BME280;3142;48.206;11.550;2024-01-11T05:23:47;96581.38;;;-3.73;77.74
6218;BME280;3142;48.206;11.550;2024-01-11T05:26:15;96579.19;;;-3.79;78.46
6218;BME280;3142;48.206;11.550;2024-01-11T05:28:41;96577.78;;;-3.84;78.25
6218;BME280;3142;48.206;11.550;2024-01-11T05:31:09;96584.19;;;-3.92;78.02
6218;BME280;3142;48.206;11.550;2024-01-11T05:33:37;96587.66;;;-3.93;78.46
6218;BME280;3142;48.206;11.550;2024-01-11T05:36:04;96586.00;;;-3.94;78.00
6218;BME280;3142;48.206;11.550;2024-01-11T05:38:31;96589.69;;;-3.83;78.42
6218;BME280;3142;48.206;11.550;2024-01-11T05:40:58;96596.44;;;-3.68;77.96
6218;BME280;3142;48.206;11.550;2024-01-11T05:43:24;96591.34;;;-3.54;77.78
6218;BME280;3142;48.206;11.550;2024-01-11T05:45:51;96600.38;;;-3.48;78.02
6218;BME280;3142;48.206;11.550;2024-01-11T05:48:17;96591.88;;;-3.49;78.36
6218;BME280;3142;48.206;11.550;2024-01-11T05:50:45;96595.06;;;-3.45;77.67
6218;BME280;3142;48.206;11.550;2024-01-11T05:53:12;96599.16;;;-3.57;77.57
6218;BME280;3142;48.206;11.550;2024-01-11T05:55:39;96606.50;;;-3.51;78.19
6218;BME280;3142;48.206;11.550;2024-01-11T05:58:05;96608.78;;;-3.46;77.39
6218;BME280;3142;48.206;11.550;2024-01-11T06:00:32;96602.28;;;-3.66;77.22
6218;BME280;3142;48.206;11.550;2024-01-11T06:02:58;96602.19;;;-3.65;77.50
6218;BME280;3142;48.206;11.550;2024-01-11T06:05:25;96595.72;;;-3.56;77.16
6218;BME280;3142;48.206;11.550;2024-01-11T06:07:53;96600.09;;;-3.58;76.46
6218;BME280;3142;48.206;11.550;2024-01-11T06:10:19;96603.56;;;-3.59;76.61
6218;BME280;3142;48.206;11.550;2024-01-11T06:12:46;96610.31;;;-3.58;76.59
6218;BME280;3142;48.206;11.550;2024-01-11T06:15:12;96619.63;;;-3.57;76.15
6218;BME280;3142;48.206;11.550;2024-01-11T06:17:38;96625.53;;;-3.71;75.86
6218;BME280;3142;48.206;11.550;2024-01-11T06:20:06;96625.72;;;-3.74;76.81
6218;BME280;3142;48.206;11.550;2024-01-11T06:22:32;96632.25;;;-3.68;77.15
6218;BME280;3142;48.206;11.550;2024-01-11T06:25:00;96625.47;;;-3.69;76.85
6218;BME280;3142;48.206;11.550;2024-01-11T06:27:27;96629.31;;;-3.62;76.85
6218;BME280;3142;48.206;11.550;2024-01-11T06:29:53;96625.94;;;-3.63;76.53
6218;BME280;3142;48.206;11.550;2024-01-11T06:32:20;96629.22;;;-3.61;77.02
6218;BME280;3142;48.206;11.550;2024-01-11T06:34:46;96633.88;;;-3.67;77.24
6218;BME280;3142;48.206;11.550;2024-01-11T06:37:13;96656.22;;;-3.71;76.67
6218;BME280;3142;48.206;11.550;2024-01-11T06:39:39;96653.50;;;-3.68;76.35
6218;BME280;3142;48.206;11.550;2024-01-11T06:42:07;96652.69;;;-3.68;76.51
6218;BME280;3142;48.206;11.550;2024-01-11T06:44:33;96651.69;;;-3.66;77.00
6218;BME280;3142;48.206;11.550;2024-01-11T06:47:00;96656.78;;;-3.66;77.19
6218;BME280;3142;48.206;11.550;2024-01-11T06:49:29;96667.47;;;-3.59;76.80
6218;BME280;3142;48.206;11.550;2024-01-11T06:51:55;96652.44;;;-3.49;76.15
6218;BME280;3142;48.206;11.550;2024-01-11T06:54:22;96646.78;;;-3.54;76.52
6218;BME280;3142;48.206;11.550;2024-01-11T06:56:48;96657.22;;;-3.73;75.80
6218;BME280;3142;48.206;11.550;2024-01-11T06:59:16;96654.72;;;-3.89;76.97
6218;BME280;3142;48.206;11.550;2024-01-11T07:01:44;96649.34;;;-3.84;77.72
6218;BME280;3142;48.206;11.550;2024-01-11T07:04:10;96661.56;;;-3.90;76.90
6218;BME280;3142;48.206;11.550;2024-01-11T07:06:37;96664.31;;;-3.93;77.08
6218;BME280;3142;48.206;11.550;2024-01-11T07:09:03;96670.16;;;-3.91;77.00
6218;BME280;3142;48.206;11.550;2024-01-11T07:11:31;96666.50;;;-3.87;77.30
6218;BME280;3142;48.206;11.550;2024-01-11T07:13:58;96664.34;;;-3.78;77.22
6218;BME280;3142;48.206;11.550;2024-01-11T07:16:26;96664.81;;;-3.72;77.25
6218;BME280;3142;48.206;11.550;2024-01-11T07:18:52;96660.72;;;-3.60;76.63
6218;BME280;3142;48.206;11.550;2024-01-11T07:21:21;96670.22;;;-3.62;76.38
6218;BME280;3142;48.206;11.550;2024-01-11T07:23:48;96665.00;;;-3.61;77.77
6218;BME280;3142;48.206;11.550;2024-01-11T07:26:14;96664.91;;;-3.59;76.78
6218;BME280;3142;48.206;11.550;2024-01-11T07:28:41;96667.56;;;-3.61;76.44
6218;BME280;3142;48.206;11.550;2024-01-11T07:31:07;96672.88;;;-3.64;76.64
6218;BME280;3142;48.206;11.550;2024-01-11T07:33:35;96659.47;;;-3.53;76.75
6218;BME280;3142;48.206;11.550;2024-01-11T07:36:02;96659.47;;;-3.53;76.24
6218;BME280;3142;48.206;11.550;2024-01-11T07:38:28;96668.41;;;-3.46;76.34
6218;BME280;3142;48.206;11.550;2024-01-11T07:40:55;96679.28;;;-3.42;76.83
6218;BME280;3142;48.206;11.550;2024-01-11T07:43:21;96679.84;;;-3.37;76.26
6218;BME280;3142;48.206;11.550;2024-01-11T07:45:48;96677.91;;;-3.48;77.23
6218;BME280;3142;48.206;11.550;2024-01-11T07:48:15;96678.38;;;-3.41;76.86
6218;BME280;3142;48.206;11.550;2024-01-11T07:50:43;96674.63;;;-3.36;75.95
6218;BME280;3142;48.206;11.550;2024-01-11T07:53:09;96679.28;;;-3.42;76.75
6218;BME280;3142;48.206;11.550;2024-01-11T07:55:36;96678.00;;;-3.49;75.84
6218;BME280;3142;48.206;11.550;2024-01-11T07:58:03;96673.59;;;-3.47;75.93
6218;BME280;3142;48.206;11.550;2024-01-11T08:00:30;96680.13;;;-3.42;75.73
6218;BME280;3142;48.206;11.550;2024-01-11T08:02:56;96673.72;;;-3.35;76.13
6218;BME280;3142;48.206;11.550;2024-01-11T08:05:23;96671.78;;;-3.45;76.76
6218;BME280;3142;48.206;11.550;2024-01-11T08:07:51;96670.03;;;-3.45;76.71
6218;BME280;3142;48.206;11.550;2024-01-11T08:10:17;96679.13;;;-3.39;76.61
6218;BME280;3142;48.206;11.550;2024-01-11T08:12:43;96680.75;;;-3.38;76.12
6218;BME280;3142;48.206;11.550;2024-01-11T08:15:10;96690.50;;;-3.45;76.66
6218;BME280;3142;48.206;11.550;2024-01-11T08:17:37;96691.44;;;-3.32;76.88
6218;BME280;3142;48.206;11.550;2024-01-11T08:20:05;96701.69;;;-3.17;74.97
6218;BME280;3142;48.206;11.550;2024-01-11T08:22:33;96704.41;;;-3.20;76.09
6218;BME280;3142;48.206;11.550;2024-01-11T08:25:03;96706.97;;;-3.20;75.08
6218;BME280;3142;48.206;11.550;2024-01-11T08:27:30;96706.78;;;-3.32;75.26
6218;BME280;3142;48.206;11.550;2024-01-11T08:29:56;96708.09;;;-3.24;76.25
6218;BME280;3142;48.206;11.550;2024-01-11T08:32:23;96695.91;;;-3.35;76.11
6218;BME280;3142;48.206;11.550;2024-01-11T08:34:49;96712.88;;;-3.48;76.20
6218;BME280;3142;48.206;11.550;2024-01-11T08:37:16;96720.91;;;-3.54;76.42
6218;BME280;3142;48.206;11.550;2024-01-11T08:39:42;96732.81;;;-3.39;76.11
6218;BME280;3142;48.206;11.550;2024-01-11T08:42:10;96739.09;;;-3.45;75.46
6218;BME280;3142;48.206;11.550;2024-01-11T08:44:36;96744.94;;;-3.43;76.20
6218;BME280;3142;48.206;11.550;2024-01-11T08:47:07;96748.22;;;-3.55;76.22
6218;BME280;3142;48.206;11.550;2024-01-11T08:49:36;96745.66;;;-3.55;76.47
6218;BME280;3142;48.206;11.550;2024-01-11T08:52:04;96747.13;;;-3.51;76.17
6218;BME280;3142;48.206;11.550;2024-01-11T08:54:31;96755.34;;;-3.46;75.46
6218;BME280;3142;48.206;11.550;2024-01-11T08:56:58;96756.66;;;-3.39;76.19
6218;BME280;3142;48.206;11.550;2024-01-11T08:59:25;96764.56;;;-3.43;76.83
6218;BME280;3142;48.206;11.550;2024-01-11T09:01:52;96767.63;;;-3.37;75.47
6218;BME280;3142;48.206;11.550;2024-01-11T09:04:19;96779.72;;;-3.54;76.31
6218;BME280;3142;48.206;11.550;2024-01-11T09:06:45;96790.09;;;-3.58;76.14
6218;BME280;3142;48.206;11.550;2024-01-11T09:09:12;96777.91;;;-3.52;76.03
6218;BME280;3142;48.206;11.550;2024-01-11T09:11:38;96773.69;;;-3.53;76.63
6218;BME280;3142;48.206;11.550;2024-01-11T09:14:06;96767.31;;;-3.46;76.41
6218;BME280;3142;48.206;11.550;2024-01-11T09:16:33;96763.41;;;-3.38;75.63
6218;BME280;3142;48.206;11.550;2024-01-11T09:19:01;96772.00;;;-3.39;76.03
6218;BME280;3142;48.206;11.550;2024-01-11T09:21:27;96775.13;;;-3.34;76.35
6218;BME280;3142;48.206;11.550;2024-01-11T09:23:54;96774.78;;;-3.28;75.73
6218;BME280;3142;48.206;11.550;2024-01-11T09:26:20;96768.84;;;-3.28;75.44
6218;BME280;3142;48.206;11.550;2024-01-11T09:28:47;96764.91;;;-3.19;75.79
6218;BME280;3142;48.206;11.550;2024-01-11T09:31:14;96765.38;;;-3.13;75.17
6218;BME280;3142;48.206;11.550;2024-01-11T09:33:42;96762.16;;;-3.16;75.04
6218;BME280;3142;48.206;11.550;2024-01-11T09:36:11;96754.69;;;-3.05;75.02
6218;BME280;3142;48.206;11.550;2024-01-11T09:38:38;96760.00;;;-3.08;75.58
6218;BME280;3142;48.206;11.550;2024-01-11T09:41:07;96751.78;;;-3.13;75.90
6218;BME280;3142;48.206;11.550;2024-01-11T09:43:34;96762.09;;;-3.15;74.95
6218;BME280;3142;48.206;11.550;2024-01-11T09:46:03;96754.84;;;-3.22;75.09
6218;BME280;3142;48.206;11.550;2024-01-11T09:48:31;96759.59;;;-3.16;76.02
6218;BME280;3142;48.206;11.550;2024-01-11T09:51:01;96747.59;;;-3.00;75.96
6218;BME280;3142;48.206;11.550;2024-01-11T09:53:28;96745.28;;;-2.90;74.91
6218;BME280;3142;48.206;11.550;2024-01-11T09:55:55;96743.63;;;-2.91;74.73
6218;BME280;3142;48.206;11.550;2024-01-11T09:58:22;96735.97;;;-3.06;75.13
6218;BME280;3142;48.206;11.550;2024-01-11T10:00:53;96730.75;;;-3.04;75.29
6218;BME280;3142;48.206;11.550;2024-01-11T10:03:21;96732.84;;;-3.11;75.79
6218;BME280;3142;48.206;11.550;2024-01-11T10:05:49;96739.50;;;-3.22;75.17
6218;BME280;3142;48.206;11.550;2024-01-11T10:08:18;96748.00;;;-3.22;75.68
6218;BME280;3142;48.206;11.550;2024-01-11T10:10:45;96748.28;;;-3.26;75.55
6218;BME280;3142;48.206;11.550;2024-01-11T10:13:11;96737.97;;;-3.11;75.19
6218;BME280;3142;48.206;11.550;2024-01-11T10:15:38;96723.06;;;-3.04;75.86
6218;BME280;3142;48.206;11.550;2024-01-11T10:18:04;96717.22;;;-2.92;75.87
6218;BME280;3142;48.206;11.550;2024-01-11T10:20:31;96720.88;;;-2.82;74.85
6218;BME280;3142;48.206;11.550;2024-01-11T10:22:58;96708.72;;;-2.78;75.47
6218;BME280;3142;48.206;11.550;2024-01-11T10:25:27;96716.84;;;-2.72;75.55
6218;BME280;3142;48.206;11.550;2024-01-11T10:27:54;96735.59;;;-2.57;74.75
6218;BME280;3142;48.206;11.550;2024-01-11T10:30:21;96720.69;;;-2.64;74.34
6218;BME280;3142;48.206;11.550;2024-01-11T10:32:49;96712.06;;;-2.63;75.03
6218;BME280;3142;48.206;11.550;2024-01-11T10:35:16;96711.94;;;-2.48;74.53
6218;BME280;3142;48.206;11.550;2024-01-11T10:37:44;96698.16;;;-2.45;75.28
6218;BME280;3142;48.206;11.550;2024-01-11T10:40:11;96694.22;;;-2.51;74.91
6218;BME280;3142;48.206;11.550;2024-01-11T10:42:42;96701.53;;;-2.45;74.97
6218;BME280;3142;48.206;11.550;2024-01-11T10:45:14;96709.94;;;-2.43;75.10
6218;BME280;3142;48.206;11.550;2024-01-11T10:47:50;96703.09;;;-2.42;74.61
6218;BME280;3142;48.206;11.550;2024-01-11T10:50:18;96694.75;;;-2.31;74.63
6218;BME280;3142;48.206;11.550;2024-01-11T10:52:56;96701.66;;;-2.33;74.70
6218;BME280;3142;48.206;11.550;2024-01-11T10:55:26;96711.84;;;-2.32;74.29
6218;BME280;3142;48.206;11.550;2024-01-11T10:57:55;96700.78;;;-2.32;75.40
6218;BME280;3142;48.206;11.550;2024-01-11T11:00:24;96685.94;;;-2.27;75.08
6218;BME280;3142;48.206;11.550;2024-01-11T11:02:51;96689.75;;;-2.20;75.11
6218;BME280;3142;48.206;11.550;2024-01-11T11:05:19;96685.84;;;-2.26;74.52
6218;BME280;3142;48.206;11.550;2024-01-11T11:07:49;96676.56;;;-2.14;74.82
6218;BME280;3142;48.206;11.550;2024-01-11T11:10:17;96684.00;;;-2.24;74.79
6218;BME280;3142;48.206;11.550;2024-01-11T11:12:45;96685.94;;;-2.27;75.31
6218;BME280;3142;48.206;11.550;2024-01-11T11:15:13;96688.03;;;-2.34;75.12
6218;BME280;3142;48.206;11.550;2024-01-11T11:17:42;96694.91;;;-2.34;75.91
6218;BME280;3142;48.206;11.550;2024-01-11T11:20:10;96699.56;;;-2.27;75.94
6218;BME280;3142;48.206;11.550;2024-01-11T11:22:37;96692.31;;;-2.20;75.89
6218;BME280;3142;48.206;11.550;2024-01-11T11:25:04;96701.22;;;-2.26;75.14
6218;BME280;3142;48.206;11.550;2024-01-11T11:27:31;96693.81;;;-2.30;76.06
6218;BME280;3142;48.206;11.550;2024-01-11T11:29:58;96703.50;;;-2.35;75.55
6218;BME280;3142;48.206;11.550;2024-01-11T11:32:36;96704.63;;;-2.40;74.83
6218;BME280;3142;48.206;11.550;2024-01-11T11:35:03;96697.19;;;-2.30;75.93
6218;BME280;3142;48.206;11.550;2024-01-11T11:37:30;96683.47;;;-2.29;75.48
6218;BME280;3142;48.206;11.550;2024-01-11T11:39:58;96680.91;;;-2.29;75.97
6218;BME280;3142;48.206;11.550;2024-01-11T11:42:25;96681.84;;;-2.30;76.14
6218;BME280;3142;48.206;11.550;2024-01-11T11:44:54;96692.31;;;-2.20;75.80
6218;BME280;3142;48.206;11.550;2024-01-11T11:47:21;96686.69;;;-2.13;76.28
6218;BME280;3142;48.206;11.550;2024-01-11T11:50:03;96686.69;;;-2.13;75.53
6218;BME280;3142;48.206;11.550;2024-01-11T11:52:32;96691.00;;;-2.13;75.66
6218;BME280;3142;48.206;11.550;2024-01-11T11:54:59;96684.75;;;-2.09;74.68
6218;BME280;3142;48.206;11.550;2024-01-11T11:57:26;96690.13;;;-1.99;75.40
6218;BME280;3142;48.206;11.550;2024-01-11T11:59:55;96681.38;;;-2.10;74.65
6218;BME280;3142;48.206;11.550;2024-01-11T12:02:22;96682.66;;;-2.02;75.20
6218;BME280;3142;48.206;11.550;2024-01-11T12:04:49;96680.13;;;-1.90;74.65
6218;BME280;3142;48.206;11.550;2024-01-11T12:07:17;96671.06;;;-1.95;75.25
6218;BME280;3142;48.206;11.550;2024-01-11T12:09:43;96681.44;;;-1.84;74.51
6218;BME280;3142;48.206;11.550;2024-01-11T12:12:10;96686.38;;;-1.81;74.57
6218;BME280;3142;48.206;11.550;2024-01-11T12:14:36;96682.59;;;-1.88;74.55
6218;BME280;3142;48.206;11.550;2024-01-11T12:17:03;96654.16;;;-1.85;74.82
6218;BME280;3142;48.206;11.550;2024-01-11T12:19:30;96650.47;;;-1.81;74.20
6218;BME280;3142;48.206;11.550;2024-01-11T12:21:56;96641.47;;;-1.74;74.06
6218;BME280;3142;48.206;11.550;2024-01-11T12:24:24;96639.00;;;-1.75;74.00
6218;BME280;3142;48.206;11.550;2024-01-11T12:26:52;96647.22;;;-1.70;73.56
6218;BME280;3142;48.206;11.550;2024-01-11T12:29:19;96649.16;;;-1.74;73.71
6218;BME280;3142;48.206;11.550;2024-01-11T12:31:46;96649.38;;;-1.77;73.92
6218;BME280;3142;48.206;11.550;2024-01-11T12:34:13;96643.31;;;-1.76;74.19
6218;BME280;3142;48.206;11.550;2024-01-11T12:36:40;96646.06;;;-1.79;73.22
6218;BME280;3142;48.206;11.550;2024-01-11T12:39:07;96673.88;;;-1.86;73.82
6218;BME280;3142;48.206;11.550;2024-01-11T12:41:36;96679.50;;;-1.81;74.37
6218;BME280;3142;48.206;11.550;2024-01-11T12:44:03;96672.75;;;-1.69;75.03
6218;BME280;3142;48.206;11.550;2024-01-11T12:46:29;96669.81;;;-1.63;75.39
6218;BME280;3142;48.206;11.550;2024-01-11T12:48:55;96659.25;;;-1.45;74.80
6218;BME280;3142;48.206;11.550;2024-01-11T12:51:22;96655.66;;;-1.43;74.76
6218;BME280;3142;48.206;11.550;2024-01-11T12:53:51;96655.44;;;-1.53;74.63
6218;BME280;3142;48.206;11.550;2024-01-11T12:56:18;96640.69;;;-1.49;74.70
6218;BME280;3142;48.206;11.550;2024-01-11T12:58:47;96635.00;;;-1.54;74.67
6218;BME280;3142;48.206;11.550;2024-01-11T13:01:14;96638.22;;;-1.63;74.87
6218;BME280;3142;48.206;11.550;2024-01-11T13:03:44;96636.97;;;-1.70;75.28
6218;BME280;3142;48.206;11.550;2024-01-11T13:06:11;96633.25;;;-1.66;75.29
6218;BME280;3142;48.206;11.550;2024-01-11T13:08:38;96642.59;;;-1.65;75.33